createdAt,value
2022-10-17T00:00:22.575Z,4.97
2022-10-17T00:02:50.459Z,5.25
2022-10-17T00:05:18.628Z,7.13
2022-10-17T00:07:47.874Z,6.63
2022-10-17T00:10:15.977Z,5.78
2022-10-17T00:12:43.898Z,5.93
2022-10-17T00:15:16.317Z,5.75
2022-10-17T00:17:44.350Z,6.97
2022-10-17T00:20:13.485Z,6.15
2022-10-17T00:22:41.614Z,10.27
2022-10-17T00:25:11.507Z,7.53
2022-10-17T00:30:10.922Z,9.48
2022-10-17T00:32:40.007Z,9.63
2022-10-17T00:35:08.824Z,9.05
2022-10-17T00:37:37.122Z,9.57
2022-10-17T00:40:07.613Z,8.98
2022-10-17T00:42:36.992Z,11.02
2022-10-17T00:45:18.453Z,11.07
2022-10-17T00:47:51.786Z,13.05
2022-10-17T00:50:20.774Z,10.00
2022-10-17T00:52:50.414Z,13.00
2022-10-17T00:55:22.814Z,9.23
2022-10-17T00:57:52.940Z,10.55
2022-10-17T01:00:21.806Z,10.27
2022-10-17T01:02:49.966Z,14.13
2022-10-17T01:05:19.380Z,13.85
2022-10-17T01:07:49.176Z,9.95
2022-10-17T01:13:08.314Z,13.70
2022-10-17T01:15:49.773Z,12.32
2022-10-17T01:18:33.634Z,13.77
2022-10-17T01:21:37.466Z,18.02
2022-10-17T01:24:54.359Z,13.35
2022-10-17T01:28:02.260Z,11.93
2022-10-17T01:31:10.960Z,15.25
2022-10-17T01:33:47.866Z,10.27
2022-10-17T01:36:24.362Z,9.25
2022-10-17T01:38:59.939Z,9.20
2022-10-17T01:41:35.498Z,7.43
2022-10-17T01:44:09.319Z,9.82
2022-10-17T01:46:40.372Z,7.93
2022-10-17T01:49:14.245Z,8.10
2022-10-17T01:51:47.024Z,8.15
2022-10-17T01:54:18.760Z,8.15
2022-10-17T01:56:50.753Z,6.75
2022-10-17T01:59:23.523Z,7.93
2022-10-17T02:01:55.486Z,8.82
2022-10-17T02:04:24.891Z,7.93
2022-10-17T02:06:52.824Z,5.03
2022-10-17T02:09:22.998Z,6.53
2022-10-17T02:12:08.476Z,8.85
2022-10-17T02:14:49.113Z,5.90
2022-10-17T02:17:29.616Z,5.78
2022-10-17T02:20:11.689Z,5.25
2022-10-17T02:22:48.684Z,5.80
2022-10-17T02:25:24.724Z,7.90
2022-10-17T02:28:02.171Z,4.47
2022-10-17T02:30:35.195Z,5.38
2022-10-17T02:33:10.427Z,5.07
2022-10-17T02:35:44.314Z,4.35
2022-10-17T02:38:14.924Z,9.70
2022-10-17T02:40:47.128Z,4.63
2022-10-17T02:43:15.791Z,7.70
2022-10-17T02:45:43.697Z,9.32
2022-10-17T02:48:19.376Z,4.90
2022-10-17T02:50:54.616Z,5.60
2022-10-17T02:53:31.043Z,7.40
2022-10-17T02:56:04.029Z,3.83
2022-10-17T02:58:34.909Z,4.72
2022-10-17T03:01:03.184Z,4.03
2022-10-17T03:03:33.771Z,4.90
2022-10-17T03:06:03.073Z,5.20
2022-10-17T03:08:31.131Z,8.70
2022-10-17T03:10:59.088Z,4.38
2022-10-17T03:13:28.982Z,3.85
2022-10-17T03:15:59.499Z,6.13
2022-10-17T03:18:27.889Z,4.10
2022-10-17T03:21:01.932Z,7.57
2022-10-17T03:23:29.960Z,5.03
2022-10-17T03:25:58.211Z,4.88
2022-10-17T03:28:26.373Z,5.55
2022-10-17T03:30:54.402Z,5.35
2022-10-17T03:33:22.856Z,7.03
2022-10-17T03:35:51.461Z,5.45
2022-10-17T03:38:20.987Z,4.63
2022-10-17T03:40:56.267Z,5.63
2022-10-17T03:43:24.438Z,5.18
2022-10-17T03:45:52.508Z,4.20
2022-10-17T03:48:20.696Z,10.32
2022-10-17T03:50:48.661Z,5.35
2022-10-17T03:53:16.922Z,4.90
2022-10-17T03:55:46.441Z,7.95
2022-10-17T03:58:14.390Z,3.65
2022-10-17T04:00:42.381Z,5.72
2022-10-17T04:03:14.935Z,7.22
2022-10-17T04:05:45.641Z,4.50
2022-10-17T04:08:13.585Z,6.32
2022-10-17T04:11:04.769Z,4.68
2022-10-17T04:13:33.543Z,5.18
2022-10-17T04:16:03.885Z,4.10
2022-10-17T04:18:32.714Z,3.75
2022-10-17T04:21:03.051Z,5.85
2022-10-17T04:23:33.561Z,5.03
2022-10-17T04:26:12.368Z,5.43
2022-10-17T04:31:11.635Z,5.45
2022-10-17T04:33:58.914Z,3.78
2022-10-17T04:36:27.038Z,4.45
2022-10-17T04:38:55.157Z,5.22
2022-10-17T04:41:24.632Z,5.38
2022-10-17T04:43:52.957Z,3.90
2022-10-17T04:46:22.269Z,3.72
2022-10-17T04:48:50.356Z,4.38
2022-10-17T04:51:23.054Z,4.15
2022-10-17T04:54:14.930Z,4.78
2022-10-17T04:56:47.186Z,5.78
2022-10-17T04:59:15.201Z,5.43
2022-10-17T05:01:45.358Z,4.47
2022-10-17T05:04:14.367Z,4.22
2022-10-17T05:06:42.283Z,4.50
2022-10-17T05:09:39.247Z,4.60
2022-10-17T05:12:10.466Z,3.58
2022-10-17T05:14:41.712Z,5.00
2022-10-17T05:17:09.865Z,3.45
2022-10-17T05:19:38.551Z,4.80
2022-10-17T05:22:07.862Z,4.13
2022-10-17T05:24:35.734Z,4.30
2022-10-17T05:27:04.806Z,3.10
2022-10-17T05:29:35.541Z,5.75
2022-10-17T05:32:16.210Z,6.55
2022-10-17T05:34:44.491Z,5.55
2022-10-17T05:37:12.788Z,4.80
2022-10-17T05:39:45.109Z,4.35
2022-10-17T05:42:15.981Z,3.92
2022-10-17T05:44:45.353Z,4.97
2022-10-17T05:47:15.172Z,3.67
2022-10-17T05:49:48.578Z,5.22
2022-10-17T05:52:23.455Z,5.10
2022-10-17T05:55:02.429Z,4.03
2022-10-17T05:57:30.480Z,3.17
2022-10-17T06:00:00.906Z,3.85
2022-10-17T06:02:30.334Z,5.30
2022-10-17T06:04:58.427Z,4.85
2022-10-17T06:07:27.787Z,3.55
2022-10-17T06:09:55.669Z,4.07
2022-10-17T06:12:23.708Z,5.25
2022-10-17T06:14:52.052Z,4.28
2022-10-17T06:17:21.445Z,4.00
2022-10-17T06:22:17.751Z,5.13
2022-10-17T06:24:46.282Z,5.22
2022-10-17T06:27:15.537Z,4.10
2022-10-17T06:29:43.526Z,4.30
2022-10-17T06:32:14.928Z,4.35
2022-10-17T06:34:49.014Z,6.53
2022-10-17T06:37:17.833Z,3.50
2022-10-17T06:39:47.141Z,3.80
2022-10-17T06:42:19.140Z,6.60
2022-10-17T06:45:11.029Z,3.72
2022-10-17T06:47:43.495Z,5.47
2022-10-17T06:50:29.591Z,5.40
2022-10-17T06:53:11.658Z,4.32
2022-10-17T06:55:53.264Z,5.68
2022-10-17T06:58:40.988Z,3.90
2022-10-17T07:01:26.682Z,3.88
2022-10-17T07:03:58.387Z,4.25
2022-10-17T07:06:28.013Z,6.18
2022-10-17T07:08:57.842Z,4.80
2022-10-17T07:11:25.858Z,3.50
2022-10-17T07:13:54.028Z,5.18
2022-10-17T07:16:23.101Z,6.95
2022-10-17T07:21:39.140Z,3.75
2022-10-17T07:24:09.214Z,3.47
2022-10-17T07:26:37.527Z,4.93
2022-10-17T07:29:06.493Z,4.25
2022-10-17T07:31:38.863Z,3.47
2022-10-17T07:34:06.932Z,5.25
2022-10-17T07:36:36.181Z,4.90
2022-10-17T07:39:06.326Z,6.15
2022-10-17T07:41:36.623Z,7.22
2022-10-17T07:44:05.641Z,5.57
2022-10-17T07:46:38.428Z,3.92
2022-10-17T07:49:06.973Z,5.90
2022-10-17T07:51:36.539Z,3.35
2022-10-17T07:54:06.343Z,3.90
2022-10-17T07:56:34.234Z,4.80
2022-10-17T07:59:05.154Z,4.50
2022-10-17T08:01:36.413Z,7.20
2022-10-17T08:04:04.314Z,4.43
2022-10-17T08:06:32.246Z,6.20
2022-10-17T08:09:02.276Z,4.68
2022-10-17T08:11:30.998Z,3.10
2022-10-17T08:13:58.894Z,5.00
2022-10-17T08:16:27.025Z,5.03
2022-10-17T08:18:54.999Z,5.22
2022-10-17T08:21:23.108Z,3.22
2022-10-17T08:23:51.041Z,3.53
2022-10-17T08:26:21.112Z,5.15
2022-10-17T08:28:49.633Z,5.72
2022-10-17T08:31:20.716Z,3.97
2022-10-17T08:33:49.578Z,8.07
2022-10-17T08:36:19.610Z,6.85
2022-10-17T08:38:51.780Z,5.80
2022-10-17T08:41:42.610Z,5.30
2022-10-17T08:46:48.246Z,4.90
2022-10-17T08:49:24.395Z,6.40
2022-10-17T08:51:56.945Z,4.15
2022-10-17T08:54:34.393Z,9.35
2022-10-17T08:57:03.765Z,4.85
2022-10-17T08:59:33.454Z,3.80
2022-10-17T09:04:49.808Z,5.88
2022-10-17T09:07:23.445Z,3.58
2022-10-17T09:10:00.394Z,8.32
2022-10-17T09:12:34.650Z,3.22
2022-10-17T09:15:23.595Z,5.10
2022-10-17T09:20:25.242Z,5.85
2022-10-17T09:25:27.863Z,5.00
2022-10-17T09:28:04.506Z,5.70
2022-10-17T09:30:46.186Z,3.55
2022-10-17T09:33:28.394Z,3.72
2022-10-17T09:36:07.781Z,3.20
2022-10-17T09:38:42.164Z,6.50
2022-10-17T09:41:42.717Z,6.28
2022-10-17T09:44:26.029Z,3.75
2022-10-17T09:47:19.946Z,9.52
2022-10-17T09:49:49.174Z,4.25
2022-10-17T09:52:19.402Z,6.05
2022-10-17T09:54:49.525Z,5.25
2022-10-17T09:57:19.586Z,4.13
2022-10-17T09:59:58.091Z,8.00
2022-10-17T10:02:28.042Z,4.82
2022-10-17T10:05:04.531Z,4.03
2022-10-17T10:07:34.701Z,4.57
2022-10-17T10:10:04.137Z,3.58
2022-10-17T10:12:34.414Z,6.07
2022-10-17T10:15:34.541Z,4.18
2022-10-17T10:18:02.980Z,5.70
2022-10-17T10:20:34.988Z,5.07
2022-10-17T10:23:08.880Z,6.05
2022-10-17T10:25:37.505Z,5.40
2022-10-17T10:28:12.002Z,7.63
2022-10-17T10:30:41.408Z,7.53
2022-10-17T10:33:13.029Z,3.45
2022-10-17T10:35:42.383Z,4.10
2022-10-17T10:38:15.007Z,5.75
2022-10-17T10:40:48.343Z,4.28
2022-10-17T10:43:24.317Z,5.78
2022-10-17T10:45:54.400Z,4.88
2022-10-17T10:48:24.705Z,7.00
2022-10-17T10:50:57.249Z,4.60
2022-10-17T10:53:35.451Z,4.85
2022-10-17T10:56:09.300Z,4.60
2022-10-17T10:58:51.848Z,6.00
2022-10-17T11:01:28.621Z,4.18
2022-10-17T11:04:24.660Z,9.20
2022-10-17T11:06:56.212Z,3.53
2022-10-17T11:09:46.044Z,4.45
2022-10-17T11:12:19.528Z,4.40
2022-10-17T11:14:53.630Z,7.28
2022-10-17T11:17:32.019Z,3.80
2022-10-17T11:20:12.564Z,4.13
2022-10-17T11:22:44.214Z,5.60
2022-10-17T11:25:23.465Z,4.07
2022-10-17T11:27:52.434Z,7.68
2022-10-17T11:30:20.586Z,5.43
2022-10-17T11:32:55.011Z,3.95
2022-10-17T11:35:31.858Z,3.42
2022-10-17T11:38:14.310Z,9.43
2022-10-17T11:40:46.021Z,10.30
2022-10-17T11:43:18.843Z,4.13
2022-10-17T11:45:50.496Z,6.20
2022-10-17T11:48:24.312Z,4.72
2022-10-17T11:53:55.426Z,5.22
2022-10-17T11:56:30.674Z,4.18
2022-10-17T11:59:13.445Z,9.73
2022-10-17T12:01:45.807Z,6.75
2022-10-17T12:04:30.324Z,4.55
2022-10-17T12:07:10.921Z,3.78
2022-10-17T12:09:46.429Z,7.72
2022-10-17T12:12:26.041Z,5.40
2022-10-17T12:17:30.132Z,3.03
2022-10-17T12:20:27.309Z,4.68
2022-10-17T12:22:56.864Z,4.40
2022-10-17T12:25:29.875Z,5.22
2022-10-17T12:28:13.563Z,5.57
2022-10-17T12:30:53.701Z,3.92
2022-10-17T12:33:26.754Z,5.05
2022-10-17T12:36:31.226Z,6.70
2022-10-17T12:39:37.883Z,5.25
2022-10-17T12:42:32.519Z,7.65
2022-10-17T12:45:00.771Z,8.68
2022-10-17T12:47:37.624Z,4.20
2022-10-17T12:50:28.967Z,7.10
2022-10-17T12:53:06.435Z,6.47
2022-10-17T12:55:34.437Z,5.90
2022-10-17T12:58:08.189Z,8.02
2022-10-17T13:00:38.466Z,5.97
2022-10-17T13:03:13.302Z,7.40
2022-10-17T13:05:43.436Z,4.55
2022-10-17T13:08:21.879Z,3.55
2022-10-17T13:10:52.790Z,4.50
2022-10-17T13:13:28.543Z,5.65
2022-10-17T13:15:58.146Z,9.60
2022-10-17T13:18:28.451Z,7.22
2022-10-17T13:21:02.483Z,8.15
2022-10-17T13:23:33.266Z,7.90
2022-10-17T13:26:14.985Z,4.30
2022-10-17T13:28:44.964Z,5.65
2022-10-17T13:31:29.647Z,4.65
2022-10-17T13:33:59.523Z,6.78
2022-10-17T13:36:30.099Z,4.53
2022-10-17T13:38:59.962Z,5.43
2022-10-17T13:41:37.472Z,4.72
2022-10-17T13:44:15.168Z,5.50
2022-10-17T13:46:44.798Z,5.28
2022-10-17T13:49:19.200Z,4.25
2022-10-17T13:51:49.369Z,5.75
2022-10-17T13:54:33.722Z,3.63
2022-10-17T13:57:05.765Z,6.28
2022-10-17T13:59:39.674Z,5.20
2022-10-17T14:02:14.559Z,5.47
2022-10-17T14:05:15.156Z,4.10
2022-10-17T14:08:05.607Z,6.97
2022-10-17T14:10:28.399Z,4.97
2022-10-17T14:12:56.966Z,6.78
2022-10-17T14:15:29.350Z,5.10
2022-10-17T14:18:02.318Z,6.30
2022-10-17T14:21:31.743Z,7.35
2022-10-17T14:23:33.642Z,5.60
2022-10-17T14:26:11.776Z,6.63
2022-10-17T14:28:40.777Z,5.72
2022-10-17T14:31:26.781Z,5.80
2022-10-17T14:33:55.739Z,5.28
2022-10-17T14:36:37.037Z,4.83
2022-10-17T14:39:10.556Z,7.03
2022-10-17T14:41:45.651Z,7.38
2022-10-17T14:44:30.089Z,6.15
2022-10-17T14:47:18.631Z,4.55
2022-10-17T14:49:52.107Z,5.07
2022-10-17T14:52:31.939Z,6.10
2022-10-17T14:55:01.645Z,7.30
2022-10-17T14:57:43.025Z,6.35
2022-10-17T15:00:15.780Z,6.15
2022-10-17T15:02:46.154Z,4.32
2022-10-17T15:05:14.656Z,4.35
2022-10-17T15:07:43.378Z,6.20
2022-10-17T15:10:26.674Z,6.80
2022-10-17T15:13:04.512Z,6.05
2022-10-17T15:15:44.181Z,7.22
2022-10-17T15:18:14.472Z,9.73
2022-10-17T15:20:42.519Z,4.80
2022-10-17T15:23:10.416Z,6.88
2022-10-17T15:25:40.145Z,6.30
2022-10-17T15:30:37.282Z,7.80
2022-10-17T15:33:05.455Z,9.18
2022-10-17T15:35:34.737Z,6.95
2022-10-17T15:38:02.890Z,7.10
2022-10-17T15:40:31.216Z,7.07
2022-10-17T15:42:59.197Z,4.55
2022-10-17T15:45:27.098Z,4.97
2022-10-17T15:47:57.189Z,5.38
2022-10-17T15:50:25.278Z,5.22
2022-10-17T15:52:54.633Z,3.90
2022-10-17T15:55:22.681Z,8.00
2022-10-17T15:57:50.878Z,5.18
2022-10-17T16:00:20.747Z,5.40
2022-10-17T16:02:49.443Z,8.00
2022-10-17T16:05:23.238Z,6.88
2022-10-17T16:07:51.601Z,5.45
2022-10-17T16:10:21.408Z,5.55
2022-10-17T16:12:50.859Z,6.90
2022-10-17T16:15:24.843Z,6.15
2022-10-17T16:17:53.846Z,4.10
2022-10-17T16:20:22.640Z,6.95
2022-10-17T16:22:50.996Z,6.07
2022-10-17T16:25:23.321Z,4.57
2022-10-17T16:27:53.206Z,4.97
2022-10-17T16:32:50.882Z,4.90
2022-10-17T16:35:21.225Z,5.97
2022-10-17T16:37:49.408Z,6.78
2022-10-17T16:40:17.995Z,6.55
2022-10-17T16:42:47.662Z,8.18
2022-10-17T16:45:18.485Z,5.90
2022-10-17T16:47:47.173Z,6.18
2022-10-17T16:50:15.350Z,6.25
2022-10-17T16:52:43.551Z,6.07
2022-10-17T16:55:12.004Z,6.88
2022-10-17T16:57:40.059Z,5.35
2022-10-17T17:00:12.805Z,9.48
2022-10-17T17:02:40.703Z,7.70
2022-10-17T17:05:09.447Z,6.95
2022-10-17T17:07:37.495Z,10.00
2022-10-17T17:10:06.520Z,9.15
2022-10-17T17:12:34.989Z,8.07
2022-10-17T17:15:03.138Z,6.70
2022-10-17T17:17:49.725Z,10.43
2022-10-17T17:20:21.011Z,8.93
2022-10-17T17:22:50.828Z,11.25
2022-10-17T17:25:18.943Z,8.07
2022-10-17T17:27:46.906Z,9.93
2022-10-17T17:30:17.223Z,11.07
2022-10-17T17:32:46.727Z,8.27
2022-10-17T17:35:14.891Z,9.07
2022-10-17T17:37:42.890Z,13.40
2022-10-17T17:40:12.168Z,12.07
2022-10-17T17:42:40.155Z,10.80
2022-10-17T17:45:09.263Z,11.25
2022-10-17T17:47:37.183Z,9.82
2022-10-17T17:50:08.014Z,9.85
2022-10-17T17:52:36.011Z,13.93
2022-10-17T17:55:03.948Z,10.75
2022-10-17T17:57:32.081Z,10.38
2022-10-17T18:00:00.145Z,10.90
2022-10-17T18:02:28.435Z,12.52
2022-10-17T18:04:56.607Z,12.68
2022-10-17T18:07:26.079Z,9.57
2022-10-17T18:09:54.747Z,11.75
2022-10-17T18:12:22.666Z,11.35
2022-10-17T18:14:50.715Z,10.95
2022-10-17T18:17:18.688Z,13.55
2022-10-17T18:19:46.698Z,13.63
2022-10-17T18:22:14.668Z,12.20
2022-10-17T18:24:44.030Z,11.77
2022-10-17T18:27:13.549Z,16.60
2022-10-17T18:29:41.539Z,12.27
2022-10-17T18:32:09.841Z,12.98
2022-10-17T18:34:38.007Z,14.30
2022-10-17T18:37:06.149Z,14.25
2022-10-17T18:39:34.318Z,13.85
2022-10-17T18:42:04.376Z,16.77
2022-10-17T18:44:36.001Z,20.17
2022-10-17T18:47:06.068Z,17.00
2022-10-17T18:49:35.827Z,15.13
2022-10-17T18:52:08.956Z,14.40
2022-10-17T18:54:37.173Z,15.15
2022-10-17T18:57:06.758Z,17.17
2022-10-17T18:59:35.156Z,16.40
2022-10-17T19:02:03.192Z,21.33
2022-10-17T19:04:32.494Z,17.80
2022-10-17T19:07:00.483Z,18.77
2022-10-17T19:09:28.553Z,20.92
2022-10-17T19:11:56.500Z,19.08
2022-10-17T19:14:26.359Z,19.13
2022-10-17T19:19:23.224Z,19.55
2022-10-17T19:21:51.771Z,20.92
2022-10-17T19:24:23.401Z,16.70
2022-10-17T19:26:53.470Z,22.58
2022-10-17T19:29:22.954Z,22.35
2022-10-17T19:31:52.708Z,17.73
2022-10-17T19:34:21.309Z,17.55
2022-10-17T19:36:49.281Z,22.60
2022-10-17T19:39:20.789Z,14.48
2022-10-17T19:41:49.558Z,19.65
2022-10-17T19:44:17.886Z,18.88
2022-10-17T19:46:46.944Z,16.63
2022-10-17T19:49:16.692Z,20.55
2022-10-17T19:51:44.642Z,17.70
2022-10-17T19:54:13.185Z,18.95
2022-10-17T19:56:43.416Z,18.50
2022-10-17T19:59:13.370Z,17.27
2022-10-17T20:01:41.531Z,19.48
2022-10-17T20:04:10.810Z,21.30
2022-10-17T20:06:41.108Z,22.60
2022-10-17T20:09:12.389Z,19.30
2022-10-17T20:11:43.748Z,22.52
2022-10-17T20:14:11.687Z,23.38
2022-10-17T20:16:39.654Z,22.15
2022-10-17T20:19:09.531Z,22.05
2022-10-17T20:21:39.606Z,21.17
2022-10-17T20:24:12.502Z,19.13
2022-10-17T20:26:40.869Z,21.15
2022-10-17T20:29:13.812Z,20.23
2022-10-17T20:31:43.500Z,23.85
2022-10-17T20:34:14.626Z,21.25
2022-10-17T20:36:43.080Z,22.67
2022-10-17T20:39:14.844Z,22.50
2022-10-17T20:41:43.430Z,25.23
2022-10-17T20:44:12.381Z,24.00
2022-10-17T20:46:45.253Z,22.45
2022-10-17T20:49:25.768Z,24.48
2022-10-17T20:51:53.745Z,24.60
2022-10-17T20:54:23.246Z,23.80
2022-10-17T20:56:51.383Z,22.50
2022-10-17T20:59:19.549Z,21.67
2022-10-17T21:01:48.421Z,27.08
2022-10-17T21:04:44.087Z,21.98
2022-10-17T21:07:04.489Z,23.80
2022-10-17T21:09:33.803Z,24.17
2022-10-17T21:12:03.516Z,24.77
2022-10-17T21:14:31.936Z,23.98
2022-10-17T21:17:04.749Z,24.73
2022-10-17T21:19:34.031Z,22.65
2022-10-17T21:22:02.027Z,26.10
2022-10-17T21:24:30.253Z,23.35
2022-10-17T21:27:00.414Z,23.10
2022-10-17T21:29:28.548Z,24.42
2022-10-17T21:31:56.470Z,21.92
2022-10-17T21:34:25.701Z,25.50
2022-10-17T21:36:54.039Z,29.58
2022-10-17T21:39:24.081Z,26.40
2022-10-17T21:41:52.972Z,25.45
2022-10-17T21:44:25.066Z,26.73
2022-10-17T21:46:53.993Z,24.02
2022-10-17T21:49:24.249Z,26.07
2022-10-17T21:51:52.920Z,24.60
2022-10-17T21:54:22.975Z,27.45
2022-10-17T21:56:51.538Z,27.20
2022-10-17T21:59:19.634Z,26.98
2022-10-17T22:01:49.068Z,30.35
2022-10-17T22:04:18.308Z,28.05
2022-10-17T22:06:48.280Z,27.23
2022-10-17T22:09:18.639Z,27.33
2022-10-17T22:11:50.393Z,31.70
2022-10-17T22:14:20.313Z,29.48
2022-10-17T22:16:50.584Z,26.48
2022-10-17T22:19:20.463Z,29.60
2022-10-17T22:24:17.806Z,26.02
2022-10-17T22:29:14.533Z,28.90
2022-10-17T22:31:42.470Z,26.42
2022-10-17T22:34:13.643Z,30.30
2022-10-17T22:36:41.794Z,30.38
2022-10-17T22:39:10.154Z,29.95
2022-10-17T22:41:38.235Z,31.33
2022-10-17T22:44:06.811Z,29.33
2022-10-17T22:46:34.893Z,27.80
2022-10-17T22:49:02.847Z,33.53
2022-10-17T22:51:32.973Z,35.67
2022-10-17T22:54:00.978Z,37.38
2022-10-17T22:56:29.038Z,33.15
2022-10-17T22:58:57.066Z,31.00
2022-10-17T23:01:26.855Z,36.00
2022-10-17T23:06:23.443Z,35.58
2022-10-17T23:08:53.077Z,34.42
2022-10-17T23:11:21.877Z,33.55
2022-10-17T23:13:49.847Z,34.35
2022-10-17T23:16:18.126Z,32.20
2022-10-17T23:18:46.256Z,30.85
2022-10-17T23:21:14.213Z,31.95
2022-10-17T23:23:42.096Z,33.55
2022-10-17T23:26:13.428Z,32.35
2022-10-17T23:28:42.205Z,31.50
2022-10-17T23:31:15.433Z,32.40
2022-10-17T23:33:45.109Z,36.78
2022-10-17T23:38:42.374Z,34.53
2022-10-17T23:41:11.988Z,31.48
2022-10-17T23:43:40.215Z,31.77
2022-10-17T23:46:08.598Z,33.50
2022-10-17T23:48:38.438Z,33.90
2022-10-17T23:51:07.481Z,31.75
2022-10-17T23:53:35.623Z,31.48
2022-10-17T23:56:03.807Z,30.58
2022-10-17T23:58:33.510Z,32.58
